createdAt,value
2023-07-21T00:00:15.453Z,83.70
2023-07-21T00:02:44.521Z,83.86
2023-07-21T00:05:17.228Z,83.98
2023-07-21T00:07:49.225Z,83.97
2023-07-21T00:10:23.180Z,83.85
2023-07-21T00:12:52.132Z,83.82
2023-07-21T00:15:19.841Z,84.16
2023-07-21T00:17:48.473Z,84.26
2023-07-21T00:20:23.450Z,84.84
2023-07-21T00:22:50.409Z,84.56
2023-07-21T00:25:17.065Z,84.96
2023-07-21T00:27:44.758Z,85.20
2023-07-21T00:30:14.572Z,85.28
2023-07-21T00:32:43.548Z,85.82
2023-07-21T00:35:11.278Z,85.79
2023-07-21T00:37:42.972Z,85.60
2023-07-21T00:40:30.359Z,86.12
2023-07-21T00:42:58.989Z,86.53
2023-07-21T00:45:28.707Z,86.56
2023-07-21T00:47:57.882Z,86.85
2023-07-21T00:50:26.996Z,86.31
2023-07-21T00:52:53.700Z,86.40
2023-07-21T00:55:20.772Z,86.55
2023-07-21T00:57:49.965Z,86.57
2023-07-21T01:00:19.175Z,86.43
2023-07-21T01:02:50.777Z,86.49
2023-07-21T01:05:25.012Z,86.57
2023-07-21T01:07:52.114Z,86.52
2023-07-21T01:10:22.893Z,86.72
2023-07-21T01:12:49.624Z,86.67
2023-07-21T01:15:17.000Z,86.55
2023-07-21T01:17:44.069Z,86.70
2023-07-21T01:20:16.085Z,87.30
2023-07-21T01:22:54.109Z,87.47
2023-07-21T01:25:22.760Z,87.33
2023-07-21T01:27:51.761Z,87.53
2023-07-21T01:30:26.368Z,87.68
2023-07-21T01:32:56.943Z,87.58
2023-07-21T01:35:24.653Z,87.81
2023-07-21T01:37:51.313Z,88.17
2023-07-21T01:40:18.464Z,88.39
2023-07-21T01:42:47.277Z,88.37
2023-07-21T01:45:16.630Z,88.15
2023-07-21T01:47:47.299Z,87.84
2023-07-21T01:50:20.325Z,88.14
2023-07-21T01:52:50.225Z,88.15
2023-07-21T01:55:34.081Z,88.32
2023-07-21T01:58:04.738Z,89.55
2023-07-21T02:00:49.722Z,90.17
2023-07-21T02:03:18.617Z,90.35
2023-07-21T02:05:45.306Z,90.45
2023-07-21T02:08:14.258Z,90.27
2023-07-21T02:10:45.634Z,90.01
2023-07-21T02:13:12.840Z,89.75
2023-07-21T02:15:39.581Z,89.35
2023-07-21T02:18:08.441Z,89.14
2023-07-21T02:20:37.480Z,89.23
2023-07-21T02:23:04.028Z,89.39
2023-07-21T02:25:32.911Z,89.56
2023-07-21T02:28:01.689Z,89.41
2023-07-21T02:30:33.052Z,89.46
2023-07-21T02:33:01.939Z,89.57
2023-07-21T02:35:31.296Z,89.54
2023-07-21T02:38:02.945Z,90.12
2023-07-21T02:40:33.083Z,91.00
2023-07-21T02:42:59.710Z,91.35
2023-07-21T02:45:28.398Z,91.72
2023-07-21T02:47:57.259Z,91.80
2023-07-21T02:50:25.339Z,91.57
2023-07-21T02:52:56.003Z,91.60
2023-07-21T02:55:22.679Z,92.00
2023-07-21T02:57:53.125Z,92.54
2023-07-21T03:00:21.896Z,92.79
2023-07-21T03:02:51.420Z,92.75
2023-07-21T03:05:23.682Z,92.77
2023-07-21T03:07:50.296Z,92.80
2023-07-21T03:10:19.286Z,92.48
2023-07-21T03:12:48.689Z,91.78
2023-07-21T03:15:16.222Z,91.64
2023-07-21T03:17:44.975Z,91.08
2023-07-21T03:20:16.744Z,90.75
2023-07-21T03:22:44.362Z,90.52
2023-07-21T03:25:12.259Z,90.21
2023-07-21T03:27:41.604Z,90.34
2023-07-21T03:30:10.950Z,90.45
2023-07-21T03:32:38.309Z,90.00
2023-07-21T03:35:06.189Z,90.02
2023-07-21T03:37:35.875Z,89.96
2023-07-21T03:40:16.173Z,90.45
2023-07-21T03:42:46.164Z,90.53
2023-07-21T03:45:14.767Z,90.69
2023-07-21T03:47:41.391Z,91.19
2023-07-21T03:50:09.460Z,91.17
2023-07-21T03:52:37.230Z,91.27
2023-07-21T03:55:04.732Z,91.18
2023-07-21T03:57:41.207Z,91.06
2023-07-21T04:00:09.003Z,90.98
2023-07-21T04:02:35.982Z,90.89
2023-07-21T04:05:04.805Z,90.83
2023-07-21T04:07:32.573Z,90.95
2023-07-21T04:10:03.911Z,91.04
2023-07-21T04:12:30.454Z,90.87
2023-07-21T04:14:56.985Z,90.66
2023-07-21T04:17:25.810Z,90.35
2023-07-21T04:19:54.740Z,90.44
2023-07-21T04:22:24.105Z,90.34
2023-07-21T04:24:50.742Z,90.33
2023-07-21T04:27:17.429Z,90.29
2023-07-21T04:29:49.033Z,90.26
2023-07-21T04:32:15.605Z,90.02
2023-07-21T04:34:44.463Z,89.85
2023-07-21T04:37:11.034Z,90.24
2023-07-21T04:39:37.689Z,90.24
2023-07-21T04:42:07.145Z,90.00
2023-07-21T04:44:33.843Z,89.95
2023-07-21T04:47:00.448Z,90.24
2023-07-21T04:49:26.948Z,90.18
2023-07-21T04:51:53.458Z,90.33
2023-07-21T04:54:24.750Z,89.86
2023-07-21T04:56:53.741Z,90.40
2023-07-21T04:59:27.393Z,90.69
2023-07-21T05:01:58.154Z,90.61
2023-07-21T05:04:24.719Z,89.91
2023-07-21T05:06:51.402Z,89.92
2023-07-21T05:09:21.080Z,89.98
2023-07-21T05:11:47.662Z,89.55
2023-07-21T05:14:19.057Z,88.39
2023-07-21T05:16:45.733Z,84.48
2023-07-21T05:19:12.234Z,79.19
2023-07-21T05:21:38.862Z,75.84
2023-07-21T05:24:05.566Z,76.36
2023-07-21T05:26:34.502Z,76.38
2023-07-21T05:29:00.999Z,76.07
2023-07-21T05:31:29.907Z,76.11
2023-07-21T05:33:58.882Z,75.76
2023-07-21T05:36:26.430Z,77.06
2023-07-21T05:38:53.336Z,76.59
2023-07-21T05:41:23.478Z,75.21
2023-07-21T05:43:49.973Z,73.44
2023-07-21T05:46:19.081Z,73.06
2023-07-21T05:48:45.731Z,73.49
2023-07-21T05:51:13.567Z,73.25
2023-07-21T05:53:43.156Z,74.19
2023-07-21T05:56:09.723Z,74.67
2023-07-21T05:58:38.380Z,75.10
2023-07-21T06:01:05.260Z,73.11
2023-07-21T06:03:32.223Z,71.73
2023-07-21T06:05:59.058Z,71.60
2023-07-21T06:08:28.213Z,71.91
2023-07-21T06:11:00.685Z,72.06
2023-07-21T06:13:30.958Z,71.97
2023-07-21T06:15:59.760Z,69.45
2023-07-21T06:18:26.339Z,70.84
2023-07-21T06:20:55.414Z,68.38
2023-07-21T06:23:21.967Z,65.76
2023-07-21T06:25:49.158Z,64.50
2023-07-21T06:28:15.912Z,61.27
2023-07-21T06:30:42.524Z,61.16
2023-07-21T06:33:10.092Z,61.84
2023-07-21T06:35:42.683Z,62.78
2023-07-21T06:38:13.965Z,63.73
2023-07-21T06:40:40.529Z,65.57
2023-07-21T06:43:07.080Z,65.12
2023-07-21T06:45:34.776Z,64.00
2023-07-21T06:48:04.491Z,63.19
2023-07-21T06:50:30.989Z,60.89
2023-07-21T06:52:57.540Z,57.74
2023-07-21T06:55:24.050Z,57.87
2023-07-21T06:57:50.710Z,58.36
2023-07-21T07:00:17.455Z,53.76
2023-07-21T07:02:50.392Z,52.24
2023-07-21T07:05:20.307Z,54.95
2023-07-21T07:07:47.070Z,57.09
2023-07-21T07:10:13.631Z,57.90
2023-07-21T07:12:42.501Z,59.14
2023-07-21T07:15:10.318Z,62.04
2023-07-21T07:17:39.219Z,62.98
2023-07-21T07:20:08.413Z,63.67
2023-07-21T07:22:37.228Z,62.95
2023-07-21T07:25:06.786Z,66.12
2023-07-21T07:27:33.370Z,66.41
2023-07-21T07:29:59.858Z,68.03
2023-07-21T07:32:26.503Z,67.25
2023-07-21T07:34:59.867Z,65.77
2023-07-21T07:37:27.979Z,68.19
2023-07-21T07:39:54.528Z,69.86
2023-07-21T07:42:23.727Z,70.03
2023-07-21T07:44:52.260Z,70.84
2023-07-21T07:47:21.104Z,70.65
2023-07-21T07:49:47.805Z,69.83
2023-07-21T07:52:19.759Z,69.70
2023-07-21T07:54:46.360Z,69.53
2023-07-21T07:57:15.768Z,69.30
2023-07-21T07:59:48.276Z,69.84
2023-07-21T08:02:14.844Z,70.42
2023-07-21T08:04:41.468Z,69.59
2023-07-21T08:07:10.977Z,70.44
2023-07-21T08:09:39.772Z,69.94
2023-07-21T08:12:06.612Z,69.82
2023-07-21T08:14:33.258Z,68.77
2023-07-21T08:17:03.703Z,67.64
2023-07-21T08:19:35.641Z,67.44
2023-07-21T08:22:06.253Z,68.63
2023-07-21T08:24:33.637Z,66.74
2023-07-21T08:27:00.510Z,65.69
2023-07-21T08:29:27.369Z,60.79
2023-07-21T08:31:56.471Z,59.80
2023-07-21T08:34:23.050Z,62.85
2023-07-21T08:36:54.578Z,62.05
2023-07-21T08:39:25.298Z,56.78
2023-07-21T08:41:54.214Z,58.67
2023-07-21T08:44:23.784Z,57.75
2023-07-21T08:46:52.896Z,58.68
2023-07-21T08:49:19.574Z,59.48
2023-07-21T08:51:46.388Z,56.66
2023-07-21T08:54:15.803Z,54.22
2023-07-21T08:56:44.585Z,57.61
2023-07-21T08:59:15.943Z,57.96
2023-07-21T09:01:46.758Z,57.34
2023-07-21T09:04:20.687Z,57.13
2023-07-21T09:07:06.760Z,59.42
2023-07-21T09:09:33.608Z,59.88
2023-07-21T09:12:08.295Z,58.32
2023-07-21T09:14:41.833Z,59.15
2023-07-21T09:17:12.697Z,59.12
2023-07-21T09:19:45.170Z,57.60
2023-07-21T09:22:14.968Z,55.60
2023-07-21T09:24:52.768Z,55.23
2023-07-21T09:27:23.367Z,52.96
2023-07-21T09:29:52.371Z,53.80
2023-07-21T09:32:22.587Z,52.57
2023-07-21T09:35:07.983Z,52.65
2023-07-21T09:37:35.659Z,52.01
2023-07-21T09:40:11.228Z,51.05
2023-07-21T09:42:39.483Z,48.40
2023-07-21T09:45:09.859Z,49.33
2023-07-21T09:47:45.065Z,48.58
2023-07-21T09:50:16.361Z,47.84
2023-07-21T09:52:47.866Z,48.29
2023-07-21T09:55:22.529Z,47.59
2023-07-21T09:57:53.065Z,49.59
2023-07-21T10:00:28.120Z,47.63
2023-07-21T10:02:57.586Z,48.40
2023-07-21T10:05:24.360Z,50.29
2023-07-21T10:07:51.794Z,49.99
2023-07-21T10:10:19.655Z,49.50
2023-07-21T10:12:47.786Z,52.58
2023-07-21T10:15:34.569Z,50.81
2023-07-21T10:18:02.741Z,51.71
2023-07-21T10:20:44.452Z,49.29
2023-07-21T10:23:15.645Z,49.75
2023-07-21T10:26:02.397Z,49.50
2023-07-21T10:28:31.640Z,45.41
2023-07-21T10:31:26.117Z,44.11
2023-07-21T10:34:15.454Z,45.64
2023-07-21T10:36:54.211Z,46.57
2023-07-21T10:39:24.383Z,48.66
2023-07-21T10:41:59.642Z,49.21
2023-07-21T10:44:39.492Z,51.52
2023-07-21T10:47:20.561Z,48.94
2023-07-21T10:49:53.487Z,45.05
2023-07-21T10:52:20.781Z,46.00
2023-07-21T10:54:51.979Z,42.62
2023-07-21T10:57:18.559Z,44.52
2023-07-21T10:59:47.506Z,46.04
2023-07-21T11:02:27.541Z,47.85
2023-07-21T11:04:54.208Z,46.88
2023-07-21T11:07:28.637Z,45.73
2023-07-21T11:10:01.451Z,44.82
2023-07-21T11:12:29.960Z,45.00
2023-07-21T11:14:57.154Z,45.16
2023-07-21T11:17:26.034Z,44.12
2023-07-21T11:20:05.790Z,47.60
2023-07-21T11:22:39.326Z,45.30
2023-07-21T11:25:12.095Z,46.44
2023-07-21T11:27:46.500Z,45.89
2023-07-21T11:30:19.937Z,45.33
2023-07-21T11:32:49.482Z,44.71
2023-07-21T11:35:16.193Z,45.75
2023-07-21T11:37:45.982Z,47.54
2023-07-21T11:40:20.761Z,47.70
2023-07-21T11:42:49.314Z,48.49
2023-07-21T11:45:35.530Z,49.17
2023-07-21T11:48:14.066Z,49.11
2023-07-21T11:50:53.619Z,52.18
2023-07-21T11:53:24.936Z,54.49
2023-07-21T11:55:54.670Z,54.86
2023-07-21T11:58:22.509Z,56.30
2023-07-21T12:00:50.408Z,56.97
2023-07-21T12:03:19.649Z,57.18
2023-07-21T12:05:49.050Z,57.77
2023-07-21T12:08:15.552Z,58.22
2023-07-21T12:10:44.545Z,57.48
2023-07-21T12:13:15.941Z,57.04
2023-07-21T12:15:46.759Z,58.48
2023-07-21T12:18:16.147Z,57.82
2023-07-21T12:20:42.835Z,57.47
2023-07-21T12:23:12.001Z,55.95
2023-07-21T12:25:39.680Z,55.49
2023-07-21T12:28:08.458Z,54.60
2023-07-21T12:30:39.618Z,53.37
2023-07-21T12:33:08.662Z,51.21
2023-07-21T12:35:35.271Z,50.74
2023-07-21T12:38:04.090Z,50.26
2023-07-21T12:40:31.039Z,51.57
2023-07-21T12:43:00.890Z,54.07
2023-07-21T12:45:28.714Z,55.80
2023-07-21T12:47:58.377Z,56.06
2023-07-21T12:50:26.524Z,57.41
2023-07-21T12:52:55.634Z,57.99
2023-07-21T12:55:22.127Z,57.62
2023-07-21T12:57:53.409Z,61.29
2023-07-21T13:00:19.951Z,59.34
2023-07-21T13:02:46.962Z,60.24
2023-07-21T13:05:15.805Z,59.05
2023-07-21T13:07:45.609Z,59.53
2023-07-21T13:10:15.616Z,59.59
2023-07-21T13:12:44.470Z,59.08
2023-07-21T13:15:11.086Z,57.54
2023-07-21T13:17:37.820Z,58.65
2023-07-21T13:20:14.898Z,57.94
2023-07-21T13:22:45.076Z,57.28
2023-07-21T13:25:11.923Z,58.08
2023-07-21T13:27:41.056Z,60.58
2023-07-21T13:30:12.115Z,62.08
2023-07-21T13:32:43.593Z,60.55
2023-07-21T13:35:10.341Z,60.97
2023-07-21T13:37:36.996Z,60.89
2023-07-21T13:40:07.243Z,60.92
2023-07-21T13:42:38.684Z,60.75
2023-07-21T13:45:05.707Z,60.76
2023-07-21T13:47:34.893Z,58.73
2023-07-21T13:50:01.627Z,59.17
2023-07-21T13:52:28.950Z,58.78
2023-07-21T13:54:55.562Z,57.31
2023-07-21T13:57:26.544Z,57.19
2023-07-21T13:59:54.269Z,56.22
2023-07-21T14:02:20.829Z,55.74
2023-07-21T14:04:48.360Z,57.33
2023-07-21T14:07:14.885Z,58.22
2023-07-21T14:09:41.493Z,58.24
2023-07-21T14:12:08.260Z,58.62
2023-07-21T14:14:34.803Z,58.06
2023-07-21T14:17:01.494Z,58.04
2023-07-21T14:19:28.252Z,58.64
2023-07-21T14:21:54.825Z,59.15
2023-07-21T14:24:21.460Z,58.63
2023-07-21T14:26:51.447Z,59.79
2023-07-21T14:29:22.504Z,60.71
2023-07-21T14:31:51.292Z,60.61
2023-07-21T14:34:18.040Z,60.63
2023-07-21T14:36:46.900Z,60.37
2023-07-21T14:39:19.298Z,61.19
2023-07-21T14:41:46.263Z,61.69
2023-07-21T14:44:16.251Z,57.16
2023-07-21T14:46:45.168Z,55.40
2023-07-21T14:49:13.874Z,53.79
2023-07-21T14:51:40.714Z,54.60
2023-07-21T14:54:07.724Z,52.69
2023-07-21T14:56:34.321Z,51.62
2023-07-21T14:59:02.588Z,52.57
2023-07-21T15:01:31.276Z,49.29
2023-07-21T15:03:58.714Z,49.86
2023-07-21T15:06:25.478Z,52.51
2023-07-21T15:08:54.784Z,51.47
2023-07-21T15:11:21.389Z,49.68
2023-07-21T15:13:52.341Z,51.57
2023-07-21T15:16:18.943Z,50.29
2023-07-21T15:18:45.562Z,49.09
2023-07-21T15:21:12.272Z,49.56
2023-07-21T15:23:38.827Z,49.31
2023-07-21T15:26:05.493Z,49.67
2023-07-21T15:28:31.996Z,49.47
2023-07-21T15:31:06.032Z,49.74
2023-07-21T15:33:32.647Z,49.02
2023-07-21T15:36:03.690Z,47.81
2023-07-21T15:38:30.696Z,49.87
2023-07-21T15:41:00.558Z,50.16
2023-07-21T15:43:29.228Z,49.68
2023-07-21T15:45:58.746Z,48.07
2023-07-21T15:48:29.555Z,47.70
2023-07-21T15:50:58.337Z,48.55
2023-07-21T15:53:24.974Z,49.18
2023-07-21T15:55:54.286Z,48.69
2023-07-21T15:58:20.838Z,47.05
2023-07-21T16:00:59.241Z,47.20
2023-07-21T16:03:29.203Z,47.64
2023-07-21T16:05:56.476Z,49.00
2023-07-21T16:08:23.765Z,50.62
2023-07-21T16:10:52.539Z,50.93
2023-07-21T16:13:21.944Z,48.90
2023-07-21T16:15:53.163Z,47.54
2023-07-21T16:18:23.084Z,49.81
2023-07-21T16:20:49.560Z,51.11
2023-07-21T16:23:16.102Z,51.03
2023-07-21T16:25:45.338Z,50.83
2023-07-21T16:28:11.880Z,50.32
2023-07-21T16:30:40.030Z,51.25
2023-07-21T16:33:06.606Z,51.22
2023-07-21T16:35:33.875Z,51.71
2023-07-21T16:38:00.860Z,53.46
2023-07-21T16:40:28.011Z,53.22
2023-07-21T16:42:54.934Z,54.13
2023-07-21T16:45:21.633Z,55.61
2023-07-21T16:47:50.393Z,55.95
2023-07-21T16:50:16.942Z,57.11
2023-07-21T16:52:43.524Z,56.08
2023-07-21T16:55:10.372Z,55.95
2023-07-21T16:57:39.333Z,55.88
2023-07-21T17:00:13.355Z,57.00
2023-07-21T17:02:42.821Z,57.92
2023-07-21T17:05:28.989Z,58.91
2023-07-21T17:07:58.814Z,59.43
2023-07-21T17:10:27.745Z,59.43
2023-07-21T17:12:57.328Z,57.70
2023-07-21T17:15:25.960Z,58.84
2023-07-21T17:17:54.966Z,52.12
2023-07-21T17:20:24.083Z,51.68
2023-07-21T17:22:50.593Z,51.10
2023-07-21T17:25:17.891Z,51.55
2023-07-21T17:27:45.167Z,51.68
2023-07-21T17:30:12.240Z,51.47
2023-07-21T17:32:41.054Z,51.05
2023-07-21T17:35:08.723Z,52.18
2023-07-21T17:37:39.625Z,52.15
2023-07-21T17:40:11.321Z,53.15
2023-07-21T17:42:40.999Z,53.31
2023-07-21T17:45:08.081Z,52.83
2023-07-21T17:47:37.308Z,53.44
2023-07-21T17:50:04.715Z,54.48
2023-07-21T17:52:32.653Z,54.50
2023-07-21T17:55:01.653Z,55.21
2023-07-21T17:57:31.014Z,55.16
2023-07-21T17:59:57.630Z,56.04
2023-07-21T18:02:24.462Z,55.60
2023-07-21T18:04:51.075Z,56.50
2023-07-21T18:07:17.569Z,55.42
2023-07-21T18:09:44.178Z,55.10
2023-07-21T18:12:13.290Z,55.89
2023-07-21T18:14:42.339Z,55.63
2023-07-21T18:17:08.835Z,56.36
2023-07-21T18:19:38.013Z,56.50
2023-07-21T18:22:05.140Z,57.22
2023-07-21T18:24:31.733Z,57.32
2023-07-21T18:26:58.912Z,58.68
2023-07-21T18:29:28.254Z,59.26
2023-07-21T18:31:54.956Z,58.58
2023-07-21T18:34:22.523Z,59.42
2023-07-21T18:36:49.281Z,59.93
2023-07-21T18:39:16.664Z,60.64
2023-07-21T18:41:48.028Z,61.02
2023-07-21T18:44:14.590Z,61.16
2023-07-21T18:46:41.160Z,61.33
2023-07-21T18:49:12.247Z,61.92
2023-07-21T18:51:38.758Z,62.05
2023-07-21T18:54:07.689Z,63.06
2023-07-21T18:56:36.500Z,63.62
2023-07-21T18:59:05.275Z,63.88
2023-07-21T19:01:34.472Z,64.17
2023-07-21T19:04:02.255Z,64.43
2023-07-21T19:06:31.355Z,64.04
2023-07-21T19:09:00.468Z,65.23
2023-07-21T19:11:32.132Z,65.30
2023-07-21T19:14:01.550Z,66.32
2023-07-21T19:16:30.806Z,66.52
2023-07-21T19:18:59.953Z,67.05
2023-07-21T19:21:30.114Z,67.69
2023-07-21T19:24:01.217Z,67.65
2023-07-21T19:26:35.160Z,68.18
2023-07-21T19:29:02.016Z,68.55
2023-07-21T19:31:34.868Z,68.95
2023-07-21T19:34:07.024Z,69.20
2023-07-21T19:36:33.701Z,68.95
2023-07-21T19:39:05.068Z,69.31
2023-07-21T19:41:33.800Z,69.29
2023-07-21T19:44:00.684Z,69.42
2023-07-21T19:46:32.636Z,69.71
2023-07-21T19:48:59.968Z,69.39
2023-07-21T19:51:28.882Z,69.52
2023-07-21T19:53:58.530Z,70.11
2023-07-21T19:56:25.165Z,69.66
2023-07-21T19:58:53.065Z,69.72
2023-07-21T20:01:27.063Z,69.97
2023-07-21T20:03:56.238Z,70.19
2023-07-21T20:06:23.268Z,69.56
2023-07-21T20:08:49.946Z,69.83
2023-07-21T20:11:16.443Z,70.02
2023-07-21T20:13:42.963Z,69.88
2023-07-21T20:16:09.518Z,70.14
2023-07-21T20:18:36.540Z,71.21
2023-07-21T20:21:10.354Z,73.34
2023-07-21T20:23:36.912Z,74.83
2023-07-21T20:26:09.434Z,76.10
2023-07-21T20:28:38.519Z,77.08
2023-07-21T20:31:05.887Z,77.34
2023-07-21T20:33:34.827Z,77.86
2023-07-21T20:36:05.686Z,78.60
2023-07-21T20:38:32.710Z,78.74
2023-07-21T20:41:08.266Z,79.42
2023-07-21T20:43:39.397Z,79.99
2023-07-21T20:46:05.953Z,80.14
2023-07-21T20:48:34.061Z,80.95
2023-07-21T20:51:03.134Z,80.86
2023-07-21T20:53:30.272Z,81.57
2023-07-21T20:56:00.707Z,81.68
2023-07-21T20:58:29.545Z,81.90
2023-07-21T21:01:02.377Z,82.53
2023-07-21T21:03:31.325Z,82.20
2023-07-21T21:06:07.257Z,82.77
2023-07-21T21:08:36.130Z,82.80
2023-07-21T21:11:03.188Z,83.17
2023-07-21T21:13:29.842Z,83.48
2023-07-21T21:16:02.901Z,84.10
2023-07-21T21:18:32.037Z,84.13
2023-07-21T21:20:58.675Z,84.17
2023-07-21T21:23:27.264Z,84.50
2023-07-21T21:25:57.607Z,85.03
2023-07-21T21:28:24.833Z,85.25
2023-07-21T21:30:58.879Z,85.42
2023-07-21T21:33:26.238Z,85.66
2023-07-21T21:35:56.310Z,85.74
2023-07-21T21:38:25.333Z,86.06
2023-07-21T21:40:54.995Z,86.01
2023-07-21T21:43:23.741Z,86.26
2023-07-21T21:45:51.878Z,86.70
2023-07-21T21:48:20.925Z,86.74
2023-07-21T21:50:48.693Z,86.84
2023-07-21T21:53:15.191Z,87.09
2023-07-21T21:55:43.991Z,87.09
2023-07-21T21:58:10.831Z,86.95
2023-07-21T22:00:41.750Z,87.04
2023-07-21T22:03:12.751Z,86.82
2023-07-21T22:05:39.491Z,87.48
2023-07-21T22:08:06.066Z,87.76
2023-07-21T22:10:32.566Z,87.42
2023-07-21T22:13:02.291Z,87.57
2023-07-21T22:15:28.833Z,87.68
2023-07-21T22:17:59.841Z,87.82
2023-07-21T22:20:28.109Z,87.66
2023-07-21T22:22:55.017Z,87.81
2023-07-21T22:25:32.235Z,87.85
2023-07-21T22:28:04.590Z,87.69
2023-07-21T22:30:34.370Z,87.64
2023-07-21T22:33:02.291Z,87.53
2023-07-21T22:35:29.739Z,87.69
2023-07-21T22:38:03.674Z,88.00
2023-07-21T22:40:36.638Z,87.75
2023-07-21T22:43:03.658Z,87.67
2023-07-21T22:45:32.782Z,87.96
2023-07-21T22:48:01.481Z,88.33
2023-07-21T22:50:28.105Z,88.17
2023-07-21T22:52:59.568Z,88.50
2023-07-21T22:55:28.505Z,88.81
2023-07-21T22:57:57.389Z,89.02
2023-07-21T23:00:26.383Z,89.18
2023-07-21T23:02:55.580Z,89.60
2023-07-21T23:05:22.702Z,89.42
2023-07-21T23:07:51.888Z,89.85
2023-07-21T23:10:18.876Z,89.99
2023-07-21T23:12:46.975Z,90.01
2023-07-21T23:15:13.522Z,90.15
2023-07-21T23:17:42.904Z,90.15
2023-07-21T23:20:12.265Z,89.94
2023-07-21T23:22:38.773Z,90.26
2023-07-21T23:25:15.249Z,90.50
2023-07-21T23:27:44.484Z,90.54
2023-07-21T23:30:12.896Z,90.42
2023-07-21T23:32:39.621Z,90.73
2023-07-21T23:35:07.497Z,90.68
2023-07-21T23:37:33.999Z,90.73
2023-07-21T23:40:07.194Z,90.54
2023-07-21T23:42:33.690Z,90.60
2023-07-21T23:45:00.942Z,90.66
2023-07-21T23:47:28.285Z,90.81
2023-07-21T23:49:54.844Z,90.71
2023-07-21T23:52:21.326Z,90.87
2023-07-21T23:54:47.869Z,91.39
2023-07-21T23:57:16.909Z,91.65
2023-07-21T23:59:48.256Z,91.38
